createdAt,value
2023-03-20T00:02:07.877Z,5.89
2023-03-20T00:04:36.025Z,5.85
2023-03-20T00:07:04.649Z,5.85
2023-03-20T00:09:33.026Z,5.86
2023-03-20T00:12:01.726Z,5.78
2023-03-20T00:14:31.260Z,5.79
2023-03-20T00:16:59.357Z,5.81
2023-03-20T00:19:29.428Z,5.79
2023-03-20T00:21:57.676Z,5.81
2023-03-20T00:24:26.577Z,5.74
2023-03-20T00:26:55.983Z,5.73
2023-03-20T00:29:26.797Z,5.78
2023-03-20T00:31:56.993Z,5.74
2023-03-20T00:34:27.363Z,5.79
2023-03-20T00:36:58.190Z,5.82
2023-03-20T00:39:26.523Z,5.94
2023-03-20T00:41:57.237Z,5.92
2023-03-20T00:44:29.175Z,5.98
2023-03-20T00:47:01.304Z,6.08
2023-03-20T00:49:30.929Z,6.08
2023-03-20T00:51:59.281Z,6.09
2023-03-20T00:54:27.372Z,6.08
2023-03-20T00:56:58.803Z,6.07
2023-03-20T00:59:30.483Z,6.06
2023-03-20T01:02:00.999Z,6.04
2023-03-20T01:04:35.773Z,6.08
2023-03-20T01:07:04.147Z,6.04
2023-03-20T01:09:32.285Z,6.02
2023-03-20T01:12:00.935Z,6.02
2023-03-20T01:14:29.016Z,5.92
2023-03-20T01:16:57.199Z,5.94
2023-03-20T01:19:26.736Z,5.93
2023-03-20T01:21:54.867Z,5.89
2023-03-20T01:24:23.005Z,5.82
2023-03-20T01:26:51.864Z,5.80
2023-03-20T01:29:22.500Z,5.84
2023-03-20T01:31:51.363Z,5.83
2023-03-20T01:34:21.229Z,5.83
2023-03-20T01:36:54.281Z,5.83
2023-03-20T01:39:24.515Z,5.79
2023-03-20T01:41:54.435Z,5.74
2023-03-20T01:44:31.161Z,5.76
2023-03-20T01:47:02.534Z,5.88
2023-03-20T01:50:07.926Z,5.89
2023-03-20T01:52:37.899Z,5.82
2023-03-20T01:55:06.769Z,5.77
2023-03-20T01:57:35.028Z,5.84
2023-03-20T02:00:06.694Z,5.84
2023-03-20T02:02:45.697Z,5.80
2023-03-20T02:05:21.468Z,5.75
2023-03-20T02:08:00.841Z,5.57
2023-03-20T02:10:29.080Z,5.59
2023-03-20T02:13:06.812Z,5.47
2023-03-20T02:16:03.319Z,5.48
2023-03-20T02:18:52.776Z,5.52
2023-03-20T02:22:08.592Z,5.45
2023-03-20T02:25:19.333Z,5.47
2023-03-20T02:28:08.336Z,5.46
2023-03-20T02:31:08.437Z,5.45
2023-03-20T02:34:12.117Z,5.48
2023-03-20T02:37:05.364Z,5.43
2023-03-20T02:40:04.628Z,5.43
2023-03-20T02:42:41.105Z,5.47
2023-03-20T02:45:16.249Z,5.48
2023-03-20T02:47:51.469Z,5.61
2023-03-20T02:50:34.030Z,5.65
2023-03-20T02:53:17.338Z,5.65
2023-03-20T02:55:54.376Z,5.57
2023-03-20T02:58:26.050Z,5.61
2023-03-20T03:01:02.693Z,5.61
2023-03-20T03:03:38.504Z,5.70
2023-03-20T03:06:12.095Z,5.77
2023-03-20T03:08:46.450Z,5.81
2023-03-20T03:11:16.077Z,5.82
2023-03-20T03:13:50.286Z,5.89
2023-03-20T03:16:23.259Z,5.92
2023-03-20T03:18:58.538Z,5.92
2023-03-20T03:21:28.403Z,5.95
2023-03-20T03:23:56.516Z,6.02
2023-03-20T03:26:32.645Z,6.03
2023-03-20T03:29:04.161Z,6.02
2023-03-20T03:31:33.934Z,5.88
2023-03-20T03:34:02.896Z,5.95
2023-03-20T03:36:44.875Z,6.03
2023-03-20T03:39:22.443Z,6.08
2023-03-20T03:41:55.087Z,6.16
2023-03-20T03:44:29.862Z,6.21
2023-03-20T03:47:03.516Z,6.28
2023-03-20T03:49:36.516Z,6.27
2023-03-20T03:52:10.437Z,6.33
2023-03-20T03:54:44.564Z,6.40
2023-03-20T03:57:45.133Z,6.37
2023-03-20T04:00:21.152Z,6.38
2023-03-20T04:02:52.903Z,6.45
2023-03-20T04:05:22.589Z,6.46
2023-03-20T04:07:56.585Z,6.44
2023-03-20T04:10:25.001Z,6.45
2023-03-20T04:12:54.525Z,6.47
2023-03-20T04:15:22.681Z,6.51
2023-03-20T04:17:51.034Z,6.49
2023-03-20T04:20:19.650Z,6.49
2023-03-20T04:22:49.102Z,6.42
2023-03-20T04:25:20.514Z,6.51
2023-03-20T04:27:50.359Z,6.56
2023-03-20T04:30:38.802Z,6.62
2023-03-20T04:33:12.835Z,6.65
2023-03-20T04:35:51.365Z,6.63
2023-03-20T04:38:20.637Z,6.63
2023-03-20T04:40:49.296Z,6.60
2023-03-20T04:43:17.794Z,6.51
2023-03-20T04:45:48.196Z,6.55
2023-03-20T04:48:16.416Z,6.53
2023-03-20T04:50:46.741Z,6.58
2023-03-20T04:53:15.228Z,6.59
2023-03-20T04:55:45.131Z,6.59
2023-03-20T04:58:14.142Z,6.62
2023-03-20T05:00:42.378Z,6.65
2023-03-20T05:03:11.922Z,6.66
2023-03-20T05:05:41.386Z,6.66
2023-03-20T05:08:09.810Z,6.70
2023-03-20T05:10:39.582Z,6.66
2023-03-20T05:13:19.730Z,6.62
2023-03-20T05:16:04.962Z,6.58
2023-03-20T05:18:42.169Z,6.67
2023-03-20T05:21:36.558Z,6.74
2023-03-20T05:24:29.150Z,6.81
2023-03-20T05:27:16.370Z,6.78
2023-03-20T05:30:02.888Z,6.77
2023-03-20T05:33:03.579Z,6.76
2023-03-20T05:35:40.306Z,6.76
2023-03-20T05:38:22.815Z,6.76
2023-03-20T05:40:59.616Z,6.77
2023-03-20T05:43:53.766Z,6.82
2023-03-20T05:46:57.094Z,6.88
2023-03-20T05:49:48.323Z,6.92
2023-03-20T05:52:29.652Z,6.95
2023-03-20T05:55:20.562Z,7.00
2023-03-20T05:58:24.402Z,7.05
2023-03-20T06:01:24.749Z,7.06
2023-03-20T06:04:02.225Z,7.07
2023-03-20T06:06:59.646Z,7.20
2023-03-20T06:09:30.167Z,7.27
2023-03-20T06:11:59.759Z,7.33
2023-03-20T06:14:28.505Z,7.42
2023-03-20T06:17:01.626Z,7.49
2023-03-20T06:19:30.052Z,7.61
2023-03-20T06:21:58.183Z,7.69
2023-03-20T06:24:26.855Z,7.75
2023-03-20T06:26:56.585Z,7.79
2023-03-20T06:29:25.640Z,7.89
2023-03-20T06:31:56.231Z,7.99
2023-03-20T06:34:30.305Z,8.11
2023-03-20T06:36:58.414Z,8.29
2023-03-20T06:39:28.647Z,8.40
2023-03-20T06:41:58.524Z,8.35
2023-03-20T06:44:28.127Z,8.59
2023-03-20T06:47:05.209Z,8.80
2023-03-20T06:49:33.385Z,9.15
2023-03-20T06:52:01.720Z,9.61
2023-03-20T06:54:29.830Z,9.69
2023-03-20T06:57:00.361Z,9.99
2023-03-20T06:59:28.486Z,9.65
2023-03-20T07:01:58.873Z,9.69
2023-03-20T07:04:27.775Z,9.84
2023-03-20T07:06:59.917Z,9.82
2023-03-20T07:09:28.258Z,10.07
2023-03-20T07:11:57.174Z,10.13
2023-03-20T07:14:27.016Z,10.18
2023-03-20T07:16:58.856Z,10.29
2023-03-20T07:19:27.833Z,10.35
2023-03-20T07:22:03.893Z,10.43
2023-03-20T07:24:39.823Z,10.56
2023-03-20T07:27:12.418Z,10.50
2023-03-20T07:29:43.349Z,10.50
2023-03-20T07:32:17.159Z,10.34
2023-03-20T07:34:50.420Z,10.24
2023-03-20T07:37:20.934Z,10.05
2023-03-20T07:39:58.964Z,10.16
2023-03-20T07:42:34.532Z,10.31
2023-03-20T07:45:14.129Z,10.30
2023-03-20T07:47:45.772Z,10.46
2023-03-20T07:50:14.025Z,10.63
2023-03-20T07:52:47.692Z,10.65
2023-03-20T07:55:18.351Z,10.67
2023-03-20T07:57:46.904Z,10.81
2023-03-20T08:00:17.889Z,10.82
2023-03-20T08:02:46.373Z,11.01
2023-03-20T08:05:14.570Z,11.18
2023-03-20T08:07:42.805Z,11.28
2023-03-20T08:10:12.220Z,11.49
2023-03-20T08:12:40.419Z,11.98
2023-03-20T08:15:09.500Z,12.30
2023-03-20T08:17:38.995Z,12.49
2023-03-20T08:20:07.995Z,12.90
2023-03-20T08:22:36.211Z,13.50
2023-03-20T08:25:04.682Z,14.34
2023-03-20T08:27:32.939Z,15.73
2023-03-20T08:30:01.021Z,16.47
2023-03-20T08:32:29.198Z,16.35
2023-03-20T08:34:58.780Z,16.30
2023-03-20T08:37:26.956Z,16.95
2023-03-20T08:39:55.257Z,16.72
2023-03-20T08:42:23.725Z,16.84
2023-03-20T08:44:52.055Z,17.62
2023-03-20T08:47:20.583Z,17.32
2023-03-20T08:49:48.718Z,17.19
2023-03-20T08:52:18.189Z,17.48
2023-03-20T08:54:46.668Z,17.58
2023-03-20T08:57:14.882Z,17.47
2023-03-20T08:59:42.960Z,17.54
2023-03-20T09:02:12.703Z,17.52
2023-03-20T09:04:41.315Z,17.77
2023-03-20T09:07:09.669Z,17.80
2023-03-20T09:09:39.199Z,17.53
2023-03-20T09:12:07.846Z,17.49
2023-03-20T09:14:36.540Z,17.37
2023-03-20T09:17:04.706Z,17.43
2023-03-20T09:19:33.166Z,17.38
2023-03-20T09:22:01.864Z,16.94
2023-03-20T09:24:31.538Z,17.11
2023-03-20T09:27:03.523Z,17.44
2023-03-20T09:29:31.934Z,17.14
2023-03-20T09:32:00.133Z,17.12
2023-03-20T09:34:29.549Z,17.14
2023-03-20T09:36:57.773Z,17.61
2023-03-20T09:39:25.899Z,18.49
2023-03-20T09:41:57.512Z,19.21
2023-03-20T09:44:42.216Z,19.73
2023-03-20T09:47:20.673Z,20.56
2023-03-20T09:50:02.693Z,21.79
2023-03-20T09:52:36.207Z,22.69
2023-03-20T09:55:09.444Z,24.37
2023-03-20T09:57:42.660Z,24.98
2023-03-20T10:00:18.792Z,24.90
2023-03-20T10:02:51.575Z,24.26
2023-03-20T10:05:25.153Z,23.30
2023-03-20T10:07:55.621Z,21.32
2023-03-20T10:10:33.190Z,21.49
2023-03-20T10:13:11.032Z,20.81
2023-03-20T10:15:51.557Z,20.24
2023-03-20T10:18:25.560Z,19.14
2023-03-20T10:20:59.604Z,19.16
2023-03-20T10:23:34.640Z,19.03
2023-03-20T10:26:07.532Z,19.16
2023-03-20T10:28:41.085Z,18.80
2023-03-20T10:31:25.372Z,18.84
2023-03-20T10:34:02.845Z,19.05
2023-03-20T10:36:49.305Z,18.68
2023-03-20T10:39:25.358Z,18.69
2023-03-20T10:41:57.401Z,18.69
2023-03-20T10:44:38.694Z,18.72
2023-03-20T10:47:12.218Z,18.67
2023-03-20T10:49:44.545Z,18.15
2023-03-20T10:52:18.074Z,18.22
2023-03-20T10:54:49.517Z,17.86
2023-03-20T10:57:23.479Z,18.07
2023-03-20T10:59:52.909Z,18.04
2023-03-20T11:02:26.166Z,18.44
2023-03-20T11:04:54.580Z,18.14
2023-03-20T11:07:26.959Z,17.92
2023-03-20T11:10:13.427Z,17.57
2023-03-20T11:12:43.548Z,17.23
2023-03-20T11:15:24.336Z,16.95
2023-03-20T11:17:56.218Z,16.86
2023-03-20T11:20:25.137Z,16.90
2023-03-20T11:22:59.922Z,16.56
2023-03-20T11:25:33.384Z,16.46
2023-03-20T11:28:26.495Z,16.49
2023-03-20T11:31:06.683Z,16.38
2023-03-20T11:33:39.944Z,16.21
2023-03-20T11:36:27.635Z,16.09
2023-03-20T11:39:02.736Z,15.98
2023-03-20T11:41:30.979Z,15.96
2023-03-20T11:43:59.048Z,15.81
2023-03-20T11:46:27.458Z,15.83
2023-03-20T11:49:21.720Z,15.77
2023-03-20T11:51:49.852Z,15.54
2023-03-20T11:54:21.918Z,15.57
2023-03-20T11:56:55.016Z,15.54
2023-03-20T11:59:24.456Z,15.51
2023-03-20T12:01:54.715Z,15.60
2023-03-20T12:04:30.684Z,15.55
2023-03-20T12:07:04.945Z,15.70
2023-03-20T12:09:39.759Z,15.65
2023-03-20T12:12:15.229Z,15.53
2023-03-20T12:14:53.283Z,15.49
2023-03-20T12:17:34.764Z,15.58
2023-03-20T12:20:13.708Z,15.65
2023-03-20T12:22:51.109Z,15.71
2023-03-20T12:25:25.106Z,15.69
2023-03-20T12:28:02.509Z,15.79
2023-03-20T12:30:50.217Z,15.89
2023-03-20T12:33:23.481Z,15.73
2023-03-20T12:35:55.627Z,15.82
2023-03-20T12:38:29.284Z,15.86
2023-03-20T12:41:06.255Z,15.96
2023-03-20T12:43:46.069Z,15.99
2023-03-20T12:46:24.788Z,15.97
2023-03-20T12:49:08.670Z,16.07
2023-03-20T12:51:47.056Z,16.27
2023-03-20T12:54:29.107Z,16.22
2023-03-20T12:57:09.813Z,16.22
2023-03-20T12:59:49.441Z,16.30
2023-03-20T13:02:32.640Z,16.41
2023-03-20T13:05:11.971Z,16.36
2023-03-20T13:07:54.040Z,16.46
2023-03-20T13:10:23.293Z,16.54
2023-03-20T13:13:03.044Z,16.67
2023-03-20T13:15:42.456Z,16.62
2023-03-20T13:18:16.773Z,16.71
2023-03-20T13:20:51.064Z,16.64
2023-03-20T13:23:27.398Z,16.71
2023-03-20T13:26:17.215Z,16.85
2023-03-20T13:28:54.210Z,16.81
2023-03-20T13:31:36.280Z,16.61
2023-03-20T13:34:14.185Z,16.77
2023-03-20T13:36:53.601Z,16.81
2023-03-20T13:39:28.475Z,16.90
2023-03-20T13:41:57.037Z,16.77
2023-03-20T13:44:29.061Z,16.88
2023-03-20T13:47:02.182Z,17.07
2023-03-20T13:49:37.528Z,17.32
2023-03-20T13:52:11.580Z,17.36
2023-03-20T13:54:55.317Z,17.48
2023-03-20T13:57:40.836Z,17.91
2023-03-20T14:00:24.796Z,18.02
2023-03-20T14:03:08.528Z,18.33
2023-03-20T14:05:38.932Z,18.68
2023-03-20T14:08:33.322Z,19.00
2023-03-20T14:11:16.390Z,19.60
2023-03-20T14:13:48.863Z,20.38
2023-03-20T14:16:19.955Z,20.28
2023-03-20T14:18:50.358Z,19.92
2023-03-20T14:21:22.068Z,19.98
2023-03-20T14:23:52.629Z,20.07
2023-03-20T14:26:25.054Z,19.34
2023-03-20T14:29:00.171Z,19.52
2023-03-20T14:31:32.978Z,19.38
2023-03-20T14:34:17.348Z,18.91
2023-03-20T14:36:51.789Z,18.79
2023-03-20T14:39:31.540Z,18.21
2023-03-20T14:42:08.719Z,18.17
2023-03-20T14:44:52.264Z,18.25
2023-03-20T14:47:31.805Z,18.14
2023-03-20T14:50:07.312Z,18.11
2023-03-20T14:52:50.432Z,18.25
2023-03-20T14:55:34.767Z,17.89
2023-03-20T14:58:54.838Z,17.85
2023-03-20T15:01:42.361Z,17.53
2023-03-20T15:04:21.580Z,17.25
2023-03-20T15:06:52.938Z,17.17
2023-03-20T15:09:23.643Z,17.08
2023-03-20T15:11:53.508Z,17.19
2023-03-20T15:14:27.816Z,17.39
2023-03-20T15:17:00.368Z,17.74
2023-03-20T15:19:28.818Z,17.80
2023-03-20T15:21:57.069Z,17.97
2023-03-20T15:24:27.058Z,17.93
2023-03-20T15:26:58.638Z,17.87
2023-03-20T15:29:29.143Z,17.63
2023-03-20T15:32:12.878Z,17.40
2023-03-20T15:34:43.693Z,17.23
2023-03-20T15:37:16.726Z,16.99
2023-03-20T15:39:46.313Z,16.81
2023-03-20T15:42:17.298Z,16.65
2023-03-20T15:44:49.068Z,16.45
2023-03-20T15:47:21.157Z,16.32
2023-03-20T15:49:55.146Z,16.29
2023-03-20T15:52:30.022Z,16.30
2023-03-20T15:54:59.826Z,16.34
2023-03-20T15:57:35.447Z,16.29
2023-03-20T16:00:07.882Z,16.14
2023-03-20T16:02:38.374Z,16.04
2023-03-20T16:05:12.904Z,15.93
2023-03-20T16:07:41.010Z,15.84
2023-03-20T16:10:18.656Z,15.69
2023-03-20T16:12:53.043Z,15.57
2023-03-20T16:15:27.658Z,15.43
2023-03-20T16:17:59.522Z,15.36
2023-03-20T16:20:31.682Z,15.25
2023-03-20T16:23:04.470Z,15.13
2023-03-20T16:25:32.727Z,15.08
2023-03-20T16:28:00.964Z,14.94
2023-03-20T16:30:33.331Z,14.86
2023-03-20T16:33:05.879Z,14.80
2023-03-20T16:35:40.530Z,14.72
2023-03-20T16:38:17.270Z,14.63
2023-03-20T16:40:45.572Z,14.57
2023-03-20T16:43:17.778Z,14.52
2023-03-20T16:45:52.096Z,14.38
2023-03-20T16:48:32.731Z,14.25
2023-03-20T16:51:04.301Z,14.23
2023-03-20T16:53:41.417Z,14.13
2023-03-20T16:56:14.563Z,14.08
2023-03-20T16:58:44.384Z,14.00
2023-03-20T17:01:20.202Z,13.92
2023-03-20T17:03:53.190Z,13.82
2023-03-20T17:06:36.065Z,13.72
2023-03-20T17:09:18.817Z,13.52
2023-03-20T17:11:50.521Z,13.38
2023-03-20T17:14:19.545Z,13.30
2023-03-20T17:16:49.377Z,13.17
2023-03-20T17:19:20.594Z,13.08
2023-03-20T17:21:49.685Z,13.03
2023-03-20T17:24:19.022Z,12.98
2023-03-20T17:26:54.172Z,12.91
2023-03-20T17:29:22.910Z,12.84
2023-03-20T17:31:52.817Z,12.82
2023-03-20T17:34:23.121Z,12.76
2023-03-20T17:36:51.917Z,12.69
2023-03-20T17:39:21.264Z,12.65
2023-03-20T17:41:50.250Z,12.64
2023-03-20T17:44:18.704Z,12.57
2023-03-20T17:46:57.894Z,12.54
2023-03-20T17:49:28.700Z,12.52
2023-03-20T17:51:57.645Z,12.50
2023-03-20T17:54:27.138Z,12.50
2023-03-20T17:56:55.439Z,12.49
2023-03-20T17:59:24.930Z,12.47
2023-03-20T18:01:53.916Z,12.42
2023-03-20T18:04:22.690Z,12.43
2023-03-20T18:06:53.657Z,12.41
2023-03-20T18:09:22.354Z,12.38
2023-03-20T18:11:52.023Z,12.36
2023-03-20T18:14:21.541Z,12.38
2023-03-20T18:16:50.583Z,12.37
2023-03-20T18:19:26.150Z,12.34
2023-03-20T18:21:58.199Z,12.29
2023-03-20T18:24:28.390Z,12.24
2023-03-20T18:26:59.727Z,12.17
2023-03-20T18:29:31.856Z,12.11
2023-03-20T18:32:02.725Z,12.08
2023-03-20T18:34:32.706Z,12.07
2023-03-20T18:37:05.334Z,12.02
2023-03-20T18:39:34.495Z,11.97
2023-03-20T18:42:04.623Z,11.92
2023-03-20T18:44:34.846Z,11.88
2023-03-20T18:47:05.446Z,11.83
2023-03-20T18:49:39.215Z,11.78
2023-03-20T18:52:16.271Z,11.71
2023-03-20T18:54:46.045Z,11.64
2023-03-20T18:57:16.325Z,11.58
2023-03-20T18:59:45.731Z,11.54
2023-03-20T19:02:15.377Z,11.47
2023-03-20T19:04:44.915Z,11.42
2023-03-20T19:07:17.173Z,11.35
2023-03-20T19:09:47.177Z,11.32
2023-03-20T19:12:17.134Z,11.25
2023-03-20T19:14:47.862Z,11.19
2023-03-20T19:17:17.354Z,11.19
2023-03-20T19:19:46.990Z,11.16
2023-03-20T19:22:29.416Z,11.12
2023-03-20T19:24:59.103Z,11.08
2023-03-20T19:27:29.211Z,11.09
2023-03-20T19:30:00.993Z,11.06
2023-03-20T19:32:32.925Z,11.09
2023-03-20T19:37:55.970Z,11.08
2023-03-20T19:40:32.420Z,11.08
2023-03-20T19:43:05.668Z,11.11
2023-03-20T19:45:38.722Z,11.07
2023-03-20T19:48:15.510Z,11.06
2023-03-20T19:50:47.751Z,11.04
2023-03-20T19:53:21.827Z,11.01
2023-03-20T19:55:50.772Z,10.97
2023-03-20T19:58:26.419Z,10.90
2023-03-20T20:01:10.346Z,10.86
2023-03-20T20:03:42.501Z,10.80
2023-03-20T20:06:13.288Z,10.77
2023-03-20T20:08:51.901Z,10.72
2023-03-20T20:11:22.790Z,10.66
2023-03-20T20:16:43.658Z,10.48
2023-03-20T20:19:13.338Z,10.43
2023-03-20T20:24:36.086Z,10.30
2023-03-20T20:27:16.826Z,10.22
2023-03-20T20:29:52.348Z,10.10
2023-03-20T20:32:25.577Z,10.01
2023-03-20T20:38:30.781Z,9.84
2023-03-20T20:40:43.208Z,9.64
2023-03-20T20:43:37.376Z,9.54
2023-03-20T20:46:07.462Z,9.45
2023-03-20T20:48:40.520Z,9.34
2023-03-20T20:51:09.645Z,9.26
2023-03-20T20:53:39.599Z,9.15
2023-03-20T20:56:10.408Z,9.06
2023-03-20T20:58:40.138Z,8.99
2023-03-20T21:01:09.530Z,8.86
2023-03-20T21:03:38.447Z,8.79
2023-03-20T21:06:07.733Z,8.73
2023-03-20T21:08:36.743Z,8.61
2023-03-20T21:11:06.814Z,8.54
2023-03-20T21:13:38.476Z,8.52
2023-03-20T21:16:09.402Z,8.47
2023-03-20T21:18:38.299Z,8.38
2023-03-20T21:21:07.848Z,8.31
2023-03-20T21:23:36.741Z,8.27
2023-03-20T21:26:05.608Z,8.24
2023-03-20T21:28:33.909Z,8.13
2023-03-20T21:31:23.102Z,8.09
2023-03-20T21:33:54.226Z,8.01
2023-03-20T21:36:23.714Z,7.94
2023-03-20T21:39:09.324Z,7.86
2023-03-20T21:41:38.793Z,7.82
2023-03-20T21:44:07.986Z,7.77
2023-03-20T21:47:10.462Z,7.73
2023-03-20T21:53:06.744Z,7.62
2023-03-20T21:55:57.125Z,7.57
2023-03-20T21:58:36.817Z,7.53
2023-03-20T22:01:29.510Z,7.45
2023-03-20T22:04:06.305Z,7.48
2023-03-20T22:09:52.229Z,7.50
2023-03-20T22:12:49.937Z,7.46
2023-03-20T22:18:12.185Z,7.31
2023-03-20T22:21:06.678Z,7.29
2023-03-20T22:23:56.246Z,7.27
2023-03-20T22:29:32.524Z,7.15
2023-03-20T22:35:05.256Z,7.16
2023-03-20T22:38:00.907Z,7.11
2023-03-20T22:43:48.743Z,6.99
2023-03-20T22:46:03.149Z,6.89
2023-03-20T22:48:33.955Z,6.80
2023-03-20T22:51:02.091Z,6.78
2023-03-20T22:53:32.411Z,6.73
2023-03-20T22:56:01.050Z,6.69
2023-03-20T22:58:29.262Z,6.66
2023-03-20T23:00:58.081Z,6.59
2023-03-20T23:03:40.330Z,6.60
2023-03-20T23:06:09.804Z,6.53
2023-03-20T23:08:49.226Z,6.56
2023-03-20T23:11:22.450Z,6.60
2023-03-20T23:13:51.630Z,6.59
2023-03-20T23:16:20.577Z,6.52
2023-03-20T23:18:48.822Z,6.50
2023-03-20T23:21:16.931Z,6.47
2023-03-20T23:23:46.458Z,6.42
2023-03-20T23:26:16.672Z,6.35
2023-03-20T23:28:47.012Z,6.34
2023-03-20T23:31:18.064Z,6.33
2023-03-20T23:33:49.447Z,6.27
2023-03-20T23:36:34.580Z,6.23
2023-03-20T23:39:05.858Z,6.26
2023-03-20T23:42:04.697Z,6.27
2023-03-20T23:44:22.162Z,6.26
2023-03-20T23:46:50.277Z,6.26
2023-03-20T23:49:18.383Z,6.27
2023-03-20T23:51:46.656Z,6.24
2023-03-20T23:54:16.304Z,6.26
2023-03-20T23:56:44.587Z,6.24
2023-03-20T23:59:21.191Z,6.26
